sensor_id;sensor_type;location;lat;lon;timestamp;temperature;humidity
28010;DHT22;15334;49.494;8.410;2023-04-10T00:02:13;7.90;99.90
28010;DHT22;15334;49.494;8.410;2023-04-10T00:04:41;7.80;99.90
28010;DHT22;15334;49.494;8.410;2023-04-10T00:07:11;7.80;99.90
28010;DHT22;15334;49.494;8.410;2023-04-10T00:09:39;7.80;99.90
28010;DHT22;15334;49.494;8.410;2023-04-10T00:12:07;7.80;99.90
28010;DHT22;15334;49.494;8.410;2023-04-10T00:14:36;7.90;99.90
28010;DHT22;15334;49.494;8.410;2023-04-10T00:17:05;7.90;99.90
28010;DHT22;15334;49.494;8.410;2023-04-10T00:19:33;7.80;99.90
28010;DHT22;15334;49.494;8.410;2023-04-10T00:22:01;7.80;99.90
28010;DHT22;15334;49.494;8.410;2023-04-10T00:24:31;7.80;99.90
28010;DHT22;15334;49.494;8.410;2023-04-10T00:26:59;7.80;99.90
28010;DHT22;15334;49.494;8.410;2023-04-10T00:29:27;7.80;99.90
28010;DHT22;15334;49.494;8.410;2023-04-10T00:31:55;7.80;99.90
28010;DHT22;15334;49.494;8.410;2023-04-10T00:34:23;7.80;99.90
28010;DHT22;15334;49.494;8.410;2023-04-10T00:36:51;7.70;99.90
28010;DHT22;15334;49.494;8.410;2023-04-10T00:39:19;7.70;99.90
28010;DHT22;15334;49.494;8.410;2023-04-10T00:41:49;7.60;99.90
28010;DHT22;15334;49.494;8.410;2023-04-10T00:44:16;7.60;99.90
28010;DHT22;15334;49.494;8.410;2023-04-10T00:46:44;7.60;99.90
28010;DHT22;15334;49.494;8.410;2023-04-10T00:49:12;7.50;99.90
28010;DHT22;15334;49.494;8.410;2023-04-10T00:51:41;7.50;99.90
28010;DHT22;15334;49.494;8.410;2023-04-10T00:54:09;7.40;99.90
28010;DHT22;15334;49.494;8.410;2023-04-10T00:56:39;7.40;99.90
28010;DHT22;15334;49.494;8.410;2023-04-10T00:59:08;7.30;99.90
28010;DHT22;15334;49.494;8.410;2023-04-10T01:01:37;7.20;99.90
28010;DHT22;15334;49.494;8.410;2023-04-10T01:04:05;7.20;99.90
28010;DHT22;15334;49.494;8.410;2023-04-10T01:06:45;7.10;99.90
28010;DHT22;15334;49.494;8.410;2023-04-10T01:09:33;7.10;99.90
28010;DHT22;15334;49.494;8.410;2023-04-10T01:12:10;7.00;99.90
28010;DHT22;15334;49.494;8.410;2023-04-10T01:14:50;7.00;99.90
28010;DHT22;15334;49.494;8.410;2023-04-10T01:17:31;7.00;99.90
28010;DHT22;15334;49.494;8.410;2023-04-10T01:20:05;6.90;99.90
28010;DHT22;15334;49.494;8.410;2023-04-10T01:22:35;6.90;99.90
28010;DHT22;15334;49.494;8.410;2023-04-10T01:25:18;7.00;99.90
28010;DHT22;15334;49.494;8.410;2023-04-10T01:28:04;7.00;99.90
28010;DHT22;15334;49.494;8.410;2023-04-10T01:30:36;6.90;99.90
28010;DHT22;15334;49.494;8.410;2023-04-10T01:33:05;6.90;99.90
28010;DHT22;15334;49.494;8.410;2023-04-10T01:35:34;6.90;99.90
28010;DHT22;15334;49.494;8.410;2023-04-10T01:38:04;7.00;99.90
28010;DHT22;15334;49.494;8.410;2023-04-10T01:40:37;6.90;99.90
28010;DHT22;15334;49.494;8.410;2023-04-10T01:43:08;6.90;99.90
28010;DHT22;15334;49.494;8.410;2023-04-10T01:45:38;6.90;99.90
28010;DHT22;15334;49.494;8.410;2023-04-10T01:48:09;6.80;99.90
28010;DHT22;15334;49.494;8.410;2023-04-10T01:50:39;6.80;99.90
28010;DHT22;15334;49.494;8.410;2023-04-10T01:53:08;6.80;99.90
28010;DHT22;15334;49.494;8.410;2023-04-10T01:55:37;6.70;99.90
28010;DHT22;15334;49.494;8.410;2023-04-10T01:58:06;6.60;99.90
28010;DHT22;15334;49.494;8.410;2023-04-10T02:00:38;6.60;99.90
28010;DHT22;15334;49.494;8.410;2023-04-10T02:03:07;6.50;99.90
28010;DHT22;15334;49.494;8.410;2023-04-10T02:05:44;6.40;99.90
28010;DHT22;15334;49.494;8.410;2023-04-10T02:08:19;6.40;99.90
28010;DHT22;15334;49.494;8.410;2023-04-10T02:10:55;6.30;99.90
28010;DHT22;15334;49.494;8.410;2023-04-10T02:13:25;6.30;99.90
28010;DHT22;15334;49.494;8.410;2023-04-10T02:15:58;6.20;99.90
28010;DHT22;15334;49.494;8.410;2023-04-10T02:18:30;6.20;99.90
28010;DHT22;15334;49.494;8.410;2023-04-10T02:21:00;6.10;99.90
28010;DHT22;15334;49.494;8.410;2023-04-10T02:23:29;6.10;99.90
28010;DHT22;15334;49.494;8.410;2023-04-10T02:25:57;6.10;99.90
28010;DHT22;15334;49.494;8.410;2023-04-10T02:28:25;6.10;99.90
28010;DHT22;15334;49.494;8.410;2023-04-10T02:30:53;6.10;99.90
28010;DHT22;15334;49.494;8.410;2023-04-10T02:33:22;6.00;99.90
28010;DHT22;15334;49.494;8.410;2023-04-10T02:35:50;6.00;99.90
28010;DHT22;15334;49.494;8.410;2023-04-10T02:38:18;6.00;99.90
28010;DHT22;15334;49.494;8.410;2023-04-10T02:40:46;6.00;99.90
28010;DHT22;15334;49.494;8.410;2023-04-10T02:43:15;6.00;99.90
28010;DHT22;15334;49.494;8.410;2023-04-10T02:45:44;6.00;99.90
28010;DHT22;15334;49.494;8.410;2023-04-10T02:48:12;6.00;99.90
28010;DHT22;15334;49.494;8.410;2023-04-10T02:50:41;6.00;99.90
28010;DHT22;15334;49.494;8.410;2023-04-10T02:53:12;6.00;99.90
28010;DHT22;15334;49.494;8.410;2023-04-10T02:55:40;6.00;99.90
28010;DHT22;15334;49.494;8.410;2023-04-10T02:58:08;6.00;99.90
28010;DHT22;15334;49.494;8.410;2023-04-10T03:00:40;5.90;99.90
28010;DHT22;15334;49.494;8.410;2023-04-10T03:03:07;5.90;99.90
28010;DHT22;15334;49.494;8.410;2023-04-10T03:05:36;5.80;99.90
28010;DHT22;15334;49.494;8.410;2023-04-10T03:08:05;5.80;99.90
28010;DHT22;15334;49.494;8.410;2023-04-10T03:10:33;5.70;99.90
28010;DHT22;15334;49.494;8.410;2023-04-10T03:13:01;5.70;99.90
28010;DHT22;15334;49.494;8.410;2023-04-10T03:15:29;5.70;99.90
28010;DHT22;15334;49.494;8.410;2023-04-10T03:17:58;5.70;99.90
28010;DHT22;15334;49.494;8.410;2023-04-10T03:20:26;5.70;99.90
28010;DHT22;15334;49.494;8.410;2023-04-10T03:22:54;5.70;99.90
28010;DHT22;15334;49.494;8.410;2023-04-10T03:25:23;5.70;99.90
28010;DHT22;15334;49.494;8.410;2023-04-10T03:27:52;5.70;99.90
28010;DHT22;15334;49.494;8.410;2023-04-10T03:30:20;5.70;99.90
28010;DHT22;15334;49.494;8.410;2023-04-10T03:32:48;5.70;99.90
28010;DHT22;15334;49.494;8.410;2023-04-10T03:35:16;5.60;99.90
28010;DHT22;15334;49.494;8.410;2023-04-10T03:37:44;5.60;99.90
28010;DHT22;15334;49.494;8.410;2023-04-10T03:40:12;5.60;99.90
28010;DHT22;15334;49.494;8.410;2023-04-10T03:42:41;5.60;99.90
28010;DHT22;15334;49.494;8.410;2023-04-10T03:45:10;5.60;99.90
28010;DHT22;15334;49.494;8.410;2023-04-10T03:47:38;5.60;99.90
28010;DHT22;15334;49.494;8.410;2023-04-10T03:50:07;5.60;99.90
28010;DHT22;15334;49.494;8.410;2023-04-10T03:52:35;5.60;99.90
28010;DHT22;15334;49.494;8.410;2023-04-10T03:55:03;5.70;99.90
28010;DHT22;15334;49.494;8.410;2023-04-10T03:57:32;5.70;99.90
28010;DHT22;15334;49.494;8.410;2023-04-10T04:00:15;5.80;99.90
28010;DHT22;15334;49.494;8.410;2023-04-10T04:03:14;5.80;99.90
28010;DHT22;15334;49.494;8.410;2023-04-10T04:06:08;5.70;99.90
28010;DHT22;15334;49.494;8.410;2023-04-10T04:08:45;5.70;99.90
28010;DHT22;15334;49.494;8.410;2023-04-10T04:11:34;5.80;99.90
28010;DHT22;15334;49.494;8.410;2023-04-10T04:14:10;5.70;99.90
28010;DHT22;15334;49.494;8.410;2023-04-10T04:16:48;5.60;99.90
28010;DHT22;15334;49.494;8.410;2023-04-10T04:19:20;5.60;99.90
28010;DHT22;15334;49.494;8.410;2023-04-10T04:21:52;5.60;99.90
28010;DHT22;15334;49.494;8.410;2023-04-10T04:24:29;5.50;99.90
28010;DHT22;15334;49.494;8.410;2023-04-10T04:27:02;5.50;99.90
28010;DHT22;15334;49.494;8.410;2023-04-10T04:29:37;5.50;99.90
28010;DHT22;15334;49.494;8.410;2023-04-10T04:32:17;5.40;99.90
28010;DHT22;15334;49.494;8.410;2023-04-10T04:34:50;5.40;99.90
28010;DHT22;15334;49.494;8.410;2023-04-10T04:37:28;5.40;99.90
28010;DHT22;15334;49.494;8.410;2023-04-10T04:40:04;5.30;99.90
28010;DHT22;15334;49.494;8.410;2023-04-10T04:42:36;5.40;99.90
28010;DHT22;15334;49.494;8.410;2023-04-10T04:45:15;5.40;99.90
28010;DHT22;15334;49.494;8.410;2023-04-10T04:47:54;5.40;99.90
28010;DHT22;15334;49.494;8.410;2023-04-10T04:50:25;5.40;99.90
28010;DHT22;15334;49.494;8.410;2023-04-10T04:53:04;5.40;99.90
28010;DHT22;15334;49.494;8.410;2023-04-10T04:55:37;5.30;99.90
28010;DHT22;15334;49.494;8.410;2023-04-10T04:58:06;5.40;99.90
28010;DHT22;15334;49.494;8.410;2023-04-10T05:00:48;5.50;99.90
28010;DHT22;15334;49.494;8.410;2023-04-10T05:03:21;5.50;99.90
28010;DHT22;15334;49.494;8.410;2023-04-10T05:05:55;5.60;99.90
28010;DHT22;15334;49.494;8.410;2023-04-10T05:08:27;5.70;99.90
28010;DHT22;15334;49.494;8.410;2023-04-10T05:11:03;5.70;99.90
28010;DHT22;15334;49.494;8.410;2023-04-10T05:13:35;5.70;99.90
28010;DHT22;15334;49.494;8.410;2023-04-10T05:16:21;5.80;99.90
28010;DHT22;15334;49.494;8.410;2023-04-10T05:19:06;5.70;99.90
28010;DHT22;15334;49.494;8.410;2023-04-10T05:22:21;5.80;99.90
28010;DHT22;15334;49.494;8.410;2023-04-10T05:24:58;5.80;99.90
28010;DHT22;15334;49.494;8.410;2023-04-10T05:27:47;5.80;99.90
28010;DHT22;15334;49.494;8.410;2023-04-10T05:30:28;5.80;99.90
28010;DHT22;15334;49.494;8.410;2023-04-10T05:33:24;5.80;99.90
28010;DHT22;15334;49.494;8.410;2023-04-10T05:36:12;5.90;99.90
28010;DHT22;15334;49.494;8.410;2023-04-10T05:39:03;6.00;99.90
28010;DHT22;15334;49.494;8.410;2023-04-10T05:41:41;6.00;99.90
28010;DHT22;15334;49.494;8.410;2023-04-10T05:44:31;6.10;99.90
28010;DHT22;15334;49.494;8.410;2023-04-10T05:47:32;6.20;99.90
28010;DHT22;15334;49.494;8.410;2023-04-10T05:50:18;6.30;99.90
28010;DHT22;15334;49.494;8.410;2023-04-10T05:56:37;6.40;99.90
28010;DHT22;15334;49.494;8.410;2023-04-10T05:59:28;6.50;99.90
28010;DHT22;15334;49.494;8.410;2023-04-10T06:02:07;6.60;99.90
28010;DHT22;15334;49.494;8.410;2023-04-10T06:04:54;6.60;99.90
28010;DHT22;15334;49.494;8.410;2023-04-10T06:07:29;6.70;99.90
28010;DHT22;15334;49.494;8.410;2023-04-10T06:10:06;6.80;99.90
28010;DHT22;15334;49.494;8.410;2023-04-10T06:12:43;6.80;99.90
28010;DHT22;15334;49.494;8.410;2023-04-10T06:15:18;7.00;99.90
28010;DHT22;15334;49.494;8.410;2023-04-10T06:17:51;7.00;99.90
28010;DHT22;15334;49.494;8.410;2023-04-10T06:20:27;7.00;99.90
28010;DHT22;15334;49.494;8.410;2023-04-10T06:22:59;6.80;99.90
28010;DHT22;15334;49.494;8.410;2023-04-10T06:25:39;6.70;99.90
28010;DHT22;15334;49.494;8.410;2023-04-10T06:28:07;6.70;99.90
28010;DHT22;15334;49.494;8.410;2023-04-10T06:30:35;6.70;99.90
28010;DHT22;15334;49.494;8.410;2023-04-10T06:33:04;6.80;99.90
28010;DHT22;15334;49.494;8.410;2023-04-10T06:35:32;6.90;99.90
28010;DHT22;15334;49.494;8.410;2023-04-10T06:38:04;7.20;99.90
28010;DHT22;15334;49.494;8.410;2023-04-10T06:40:32;7.30;99.90
28010;DHT22;15334;49.494;8.410;2023-04-10T06:43:09;7.40;99.90
28010;DHT22;15334;49.494;8.410;2023-04-10T06:45:40;7.50;99.90
28010;DHT22;15334;49.494;8.410;2023-04-10T06:48:09;7.60;99.90
28010;DHT22;15334;49.494;8.410;2023-04-10T06:50:38;7.70;99.90
28010;DHT22;15334;49.494;8.410;2023-04-10T06:53:08;7.80;99.90
28010;DHT22;15334;49.494;8.410;2023-04-10T06:55:39;7.80;99.90
28010;DHT22;15334;49.494;8.410;2023-04-10T06:58:13;7.90;99.90
28010;DHT22;15334;49.494;8.410;2023-04-10T07:00:43;8.10;99.90
28010;DHT22;15334;49.494;8.410;2023-04-10T07:03:12;8.30;99.90
28010;DHT22;15334;49.494;8.410;2023-04-10T07:05:46;8.50;99.90
28010;DHT22;15334;49.494;8.410;2023-04-10T07:08:21;8.70;99.90
28010;DHT22;15334;49.494;8.410;2023-04-10T07:10:52;8.80;99.90
28010;DHT22;15334;49.494;8.410;2023-04-10T07:13:30;8.90;99.90
28010;DHT22;15334;49.494;8.410;2023-04-10T07:16:02;9.10;99.90
28010;DHT22;15334;49.494;8.410;2023-04-10T07:18:35;9.30;99.90
28010;DHT22;15334;49.494;8.410;2023-04-10T07:21:12;9.50;99.90
28010;DHT22;15334;49.494;8.410;2023-04-10T07:23:49;9.70;99.90
28010;DHT22;15334;49.494;8.410;2023-04-10T07:26:28;9.80;99.90
28010;DHT22;15334;49.494;8.410;2023-04-10T07:29:10;10.00;99.90
28010;DHT22;15334;49.494;8.410;2023-04-10T07:31:41;10.20;99.90
28010;DHT22;15334;49.494;8.410;2023-04-10T07:34:18;10.30;99.90
28010;DHT22;15334;49.494;8.410;2023-04-10T07:36:54;10.50;99.90
28010;DHT22;15334;49.494;8.410;2023-04-10T07:39:27;10.50;99.90
28010;DHT22;15334;49.494;8.410;2023-04-10T07:41:55;10.60;99.90
28010;DHT22;15334;49.494;8.410;2023-04-10T07:44:25;10.80;99.90
28010;DHT22;15334;49.494;8.410;2023-04-10T07:46:53;10.90;99.90
28010;DHT22;15334;49.494;8.410;2023-04-10T07:49:22;11.10;99.90
28010;DHT22;15334;49.494;8.410;2023-04-10T07:51:50;11.20;99.90
28010;DHT22;15334;49.494;8.410;2023-04-10T07:54:18;11.40;99.90
28010;DHT22;15334;49.494;8.410;2023-04-10T07:56:47;11.60;99.90
28010;DHT22;15334;49.494;8.410;2023-04-10T07:59:15;11.80;99.90
28010;DHT22;15334;49.494;8.410;2023-04-10T08:01:44;12.00;99.90
28010;DHT22;15334;49.494;8.410;2023-04-10T08:04:12;12.10;99.90
28010;DHT22;15334;49.494;8.410;2023-04-10T08:06:41;12.30;99.90
28010;DHT22;15334;49.494;8.410;2023-04-10T08:09:09;12.40;99.90
28010;DHT22;15334;49.494;8.410;2023-04-10T08:11:37;12.50;99.90
28010;DHT22;15334;49.494;8.410;2023-04-10T08:14:05;12.50;99.90
28010;DHT22;15334;49.494;8.410;2023-04-10T08:16:35;12.60;99.90
28010;DHT22;15334;49.494;8.410;2023-04-10T08:19:05;12.80;99.90
28010;DHT22;15334;49.494;8.410;2023-04-10T08:21:33;12.90;99.90
28010;DHT22;15334;49.494;8.410;2023-04-10T08:24:02;12.90;99.90
28010;DHT22;15334;49.494;8.410;2023-04-10T08:26:30;13.10;99.90
28010;DHT22;15334;49.494;8.410;2023-04-10T08:28:59;13.20;99.90
28010;DHT22;15334;49.494;8.410;2023-04-10T08:31:28;13.30;99.90
28010;DHT22;15334;49.494;8.410;2023-04-10T08:33:56;13.50;99.90
28010;DHT22;15334;49.494;8.410;2023-04-10T08:36:26;13.60;99.90
28010;DHT22;15334;49.494;8.410;2023-04-10T08:38:54;13.70;99.90
28010;DHT22;15334;49.494;8.410;2023-04-10T08:41:22;13.80;99.90
28010;DHT22;15334;49.494;8.410;2023-04-10T08:43:50;14.00;99.90
28010;DHT22;15334;49.494;8.410;2023-04-10T08:46:22;14.10;99.90
28010;DHT22;15334;49.494;8.410;2023-04-10T08:48:54;14.20;99.90
28010;DHT22;15334;49.494;8.410;2023-04-10T08:51:31;14.30;99.90
28010;DHT22;15334;49.494;8.410;2023-04-10T08:54:04;14.40;99.90
28010;DHT22;15334;49.494;8.410;2023-04-10T08:56:34;14.50;99.90
28010;DHT22;15334;49.494;8.410;2023-04-10T08:59:03;14.60;99.90
28010;DHT22;15334;49.494;8.410;2023-04-10T09:01:31;14.80;99.00
28010;DHT22;15334;49.494;8.410;2023-04-10T09:04:00;14.90;99.90
28010;DHT22;15334;49.494;8.410;2023-04-10T09:06:30;15.10;98.90
28010;DHT22;15334;49.494;8.410;2023-04-10T09:08:58;15.10;99.50
28010;DHT22;15334;49.494;8.410;2023-04-10T09:11:58;15.30;99.90
28010;DHT22;15334;49.494;8.410;2023-04-10T09:14:31;15.30;97.70
28010;DHT22;15334;49.494;8.410;2023-04-10T09:17:14;15.30;98.50
28010;DHT22;15334;49.494;8.410;2023-04-10T09:19:43;15.20;97.20
28010;DHT22;15334;49.494;8.410;2023-04-10T09:22:13;15.30;97.70
28010;DHT22;15334;49.494;8.410;2023-04-10T09:24:44;15.40;98.70
28010;DHT22;15334;49.494;8.410;2023-04-10T09:27:27;15.50;94.90
28010;DHT22;15334;49.494;8.410;2023-04-10T09:29:56;15.60;96.60
28010;DHT22;15334;49.494;8.410;2023-04-10T09:32:39;15.60;95.70
28010;DHT22;15334;49.494;8.410;2023-04-10T09:35:08;15.80;95.80
28010;DHT22;15334;49.494;8.410;2023-04-10T09:37:39;15.80;93.80
28010;DHT22;15334;49.494;8.410;2023-04-10T09:40:20;15.90;94.20
28010;DHT22;15334;49.494;8.410;2023-04-10T09:42:49;16.10;94.10
28010;DHT22;15334;49.494;8.410;2023-04-10T09:45:17;16.30;93.20
28010;DHT22;15334;49.494;8.410;2023-04-10T09:48:09;16.40;93.30
28010;DHT22;15334;49.494;8.410;2023-04-10T09:50:38;16.30;93.70
28010;DHT22;15334;49.494;8.410;2023-04-10T09:53:08;16.30;95.30
28010;DHT22;15334;49.494;8.410;2023-04-10T09:55:37;16.20;94.10
28010;DHT22;15334;49.494;8.410;2023-04-10T09:58:05;16.20;94.50
28010;DHT22;15334;49.494;8.410;2023-04-10T10:00:38;16.20;94.00
28010;DHT22;15334;49.494;8.410;2023-04-10T10:03:08;16.30;93.60
28010;DHT22;15334;49.494;8.410;2023-04-10T10:05:40;16.40;92.80
28010;DHT22;15334;49.494;8.410;2023-04-10T10:08:11;16.40;94.70
28010;DHT22;15334;49.494;8.410;2023-04-10T10:10:44;16.40;91.70
28010;DHT22;15334;49.494;8.410;2023-04-10T10:13:15;16.40;93.50
28010;DHT22;15334;49.494;8.410;2023-04-10T10:15:49;16.40;93.70
28010;DHT22;15334;49.494;8.410;2023-04-10T10:18:24;16.30;92.30
28010;DHT22;15334;49.494;8.410;2023-04-10T10:20:54;16.30;92.10
28010;DHT22;15334;49.494;8.410;2023-04-10T10:23:24;16.50;93.50
28010;DHT22;15334;49.494;8.410;2023-04-10T10:25:53;16.60;92.20
28010;DHT22;15334;49.494;8.410;2023-04-10T10:28:21;16.70;90.00
28010;DHT22;15334;49.494;8.410;2023-04-10T10:30:51;16.70;89.30
28010;DHT22;15334;49.494;8.410;2023-04-10T10:33:21;16.80;91.10
28010;DHT22;15334;49.494;8.410;2023-04-10T10:35:50;16.70;91.20
28010;DHT22;15334;49.494;8.410;2023-04-10T10:38:19;16.80;93.20
28010;DHT22;15334;49.494;8.410;2023-04-10T10:40:56;17.00;91.20
28010;DHT22;15334;49.494;8.410;2023-04-10T10:43:35;17.10;90.90
28010;DHT22;15334;49.494;8.410;2023-04-10T10:46:08;17.30;90.40
28010;DHT22;15334;49.494;8.410;2023-04-10T10:48:37;17.40;90.00
28010;DHT22;15334;49.494;8.410;2023-04-10T10:51:05;17.70;90.80
28010;DHT22;15334;49.494;8.410;2023-04-10T10:53:36;18.00;88.60
28010;DHT22;15334;49.494;8.410;2023-04-10T10:56:34;18.20;84.00
28010;DHT22;15334;49.494;8.410;2023-04-10T10:59:02;18.40;88.20
28010;DHT22;15334;49.494;8.410;2023-04-10T11:01:30;18.50;81.30
28010;DHT22;15334;49.494;8.410;2023-04-10T11:03:59;18.70;86.30
28010;DHT22;15334;49.494;8.410;2023-04-10T11:06:50;18.90;85.40
28010;DHT22;15334;49.494;8.410;2023-04-10T11:09:43;18.70;81.10
28010;DHT22;15334;49.494;8.410;2023-04-10T11:12:14;18.90;80.50
28010;DHT22;15334;49.494;8.410;2023-04-10T11:14:42;19.50;86.20
28010;DHT22;15334;49.494;8.410;2023-04-10T11:17:11;20.70;76.10
28010;DHT22;15334;49.494;8.410;2023-04-10T11:19:57;21.50;78.50
28010;DHT22;15334;49.494;8.410;2023-04-10T11:22:26;22.80;73.00
28010;DHT22;15334;49.494;8.410;2023-04-10T11:24:59;23.50;71.80
28010;DHT22;15334;49.494;8.410;2023-04-10T11:27:44;24.10;69.70
28010;DHT22;15334;49.494;8.410;2023-04-10T11:30:28;24.20;63.60
28010;DHT22;15334;49.494;8.410;2023-04-10T11:32:56;24.50;62.80
28010;DHT22;15334;49.494;8.410;2023-04-10T11:35:26;24.40;58.90
28010;DHT22;15334;49.494;8.410;2023-04-10T11:38:16;24.00;64.60
28010;DHT22;15334;49.494;8.410;2023-04-10T11:40:59;23.90;65.70
28010;DHT22;15334;49.494;8.410;2023-04-10T11:43:30;24.40;61.30
28010;DHT22;15334;49.494;8.410;2023-04-10T11:46:04;24.40;58.40
28010;DHT22;15334;49.494;8.410;2023-04-10T11:48:33;24.50;61.80
28010;DHT22;15334;49.494;8.410;2023-04-10T11:51:06;24.10;60.20
28010;DHT22;15334;49.494;8.410;2023-04-10T11:53:34;23.90;59.10
28010;DHT22;15334;49.494;8.410;2023-04-10T11:56:02;23.40;58.50
28010;DHT22;15334;49.494;8.410;2023-04-10T11:58:34;23.10;60.40
28010;DHT22;15334;49.494;8.410;2023-04-10T12:01:03;23.50;62.10
28010;DHT22;15334;49.494;8.410;2023-04-10T12:03:36;23.90;60.70
28010;DHT22;15334;49.494;8.410;2023-04-10T12:06:09;24.30;59.00
28010;DHT22;15334;49.494;8.410;2023-04-10T12:08:39;24.70;60.50
28010;DHT22;15334;49.494;8.410;2023-04-10T12:11:10;25.30;61.10
28010;DHT22;15334;49.494;8.410;2023-04-10T12:13:40;25.50;60.20
28010;DHT22;15334;49.494;8.410;2023-04-10T12:16:09;25.40;56.00
28010;DHT22;15334;49.494;8.410;2023-04-10T12:18:37;24.80;59.40
28010;DHT22;15334;49.494;8.410;2023-04-10T12:21:06;24.30;57.30
28010;DHT22;15334;49.494;8.410;2023-04-10T12:23:36;23.90;58.10
28010;DHT22;15334;49.494;8.410;2023-04-10T12:26:07;23.50;58.50
28010;DHT22;15334;49.494;8.410;2023-04-10T12:28:37;23.30;57.80
28010;DHT22;15334;49.494;8.410;2023-04-10T12:31:07;23.10;57.10
28010;DHT22;15334;49.494;8.410;2023-04-10T12:33:35;22.60;59.00
28010;DHT22;15334;49.494;8.410;2023-04-10T12:36:03;23.10;62.60
28010;DHT22;15334;49.494;8.410;2023-04-10T12:38:39;23.60;58.40
28010;DHT22;15334;49.494;8.410;2023-04-10T12:41:08;24.40;62.10
28010;DHT22;15334;49.494;8.410;2023-04-10T12:43:38;25.30;57.60
28010;DHT22;15334;49.494;8.410;2023-04-10T12:46:08;26.10;53.60
28010;DHT22;15334;49.494;8.410;2023-04-10T12:48:37;26.60;56.30
28010;DHT22;15334;49.494;8.410;2023-04-10T12:51:05;26.20;51.90
28010;DHT22;15334;49.494;8.410;2023-04-10T12:53:42;25.70;53.20
28010;DHT22;15334;49.494;8.410;2023-04-10T12:56:10;25.30;53.80
28010;DHT22;15334;49.494;8.410;2023-04-10T12:58:39;24.60;56.70
28010;DHT22;15334;49.494;8.410;2023-04-10T13:01:09;24.60;55.90
28010;DHT22;15334;49.494;8.410;2023-04-10T13:03:39;24.50;59.40
28010;DHT22;15334;49.494;8.410;2023-04-10T13:06:08;24.30;56.60
28010;DHT22;15334;49.494;8.410;2023-04-10T13:08:36;24.20;57.30
28010;DHT22;15334;49.494;8.410;2023-04-10T13:11:04;23.60;54.10
28010;DHT22;15334;49.494;8.410;2023-04-10T13:13:32;23.10;56.10
28010;DHT22;15334;49.494;8.410;2023-04-10T13:16:00;23.00;59.50
28010;DHT22;15334;49.494;8.410;2023-04-10T13:18:30;23.30;58.90
28010;DHT22;15334;49.494;8.410;2023-04-10T13:20:58;23.90;58.70
28010;DHT22;15334;49.494;8.410;2023-04-10T13:23:26;24.20;56.70
28010;DHT22;15334;49.494;8.410;2023-04-10T13:25:54;24.40;56.80
28010;DHT22;15334;49.494;8.410;2023-04-10T13:28:22;24.30;56.20
28010;DHT22;15334;49.494;8.410;2023-04-10T13:30:50;24.30;55.10
28010;DHT22;15334;49.494;8.410;2023-04-10T13:33:18;24.10;56.60
28010;DHT22;15334;49.494;8.410;2023-04-10T13:35:48;23.80;55.10
28010;DHT22;15334;49.494;8.410;2023-04-10T13:38:16;23.40;55.80
28010;DHT22;15334;49.494;8.410;2023-04-10T13:40:47;23.20;55.70
28010;DHT22;15334;49.494;8.410;2023-04-10T13:43:15;22.70;55.10
28010;DHT22;15334;49.494;8.410;2023-04-10T13:45:43;22.50;55.50
28010;DHT22;15334;49.494;8.410;2023-04-10T13:48:10;22.10;57.70
28010;DHT22;15334;49.494;8.410;2023-04-10T13:50:38;21.60;59.70
28010;DHT22;15334;49.494;8.410;2023-04-10T13:53:08;21.60;60.70
28010;DHT22;15334;49.494;8.410;2023-04-10T13:56:00;21.70;56.80
28010;DHT22;15334;49.494;8.410;2023-04-10T13:58:36;21.60;59.00
28010;DHT22;15334;49.494;8.410;2023-04-10T14:01:09;21.70;60.80
28010;DHT22;15334;49.494;8.410;2023-04-10T14:03:44;21.70;57.70
28010;DHT22;15334;49.494;8.410;2023-04-10T14:06:13;21.50;56.80
28010;DHT22;15334;49.494;8.410;2023-04-10T14:08:46;21.50;59.40
28010;DHT22;15334;49.494;8.410;2023-04-10T14:11:20;21.40;58.70
28010;DHT22;15334;49.494;8.410;2023-04-10T14:13:55;21.40;59.80
28010;DHT22;15334;49.494;8.410;2023-04-10T14:16:26;21.30;60.30
28010;DHT22;15334;49.494;8.410;2023-04-10T14:19:01;21.00;60.00
28010;DHT22;15334;49.494;8.410;2023-04-10T14:21:35;20.90;61.40
28010;DHT22;15334;49.494;8.410;2023-04-10T14:24:09;20.70;60.80
28010;DHT22;15334;49.494;8.410;2023-04-10T14:26:40;20.70;65.40
28010;DHT22;15334;49.494;8.410;2023-04-10T14:29:14;20.80;61.40
28010;DHT22;15334;49.494;8.410;2023-04-10T14:31:51;20.70;61.00
28010;DHT22;15334;49.494;8.410;2023-04-10T14:34:25;20.60;60.30
28010;DHT22;15334;49.494;8.410;2023-04-10T14:36:58;20.70;65.10
28010;DHT22;15334;49.494;8.410;2023-04-10T14:39:29;20.80;63.40
28010;DHT22;15334;49.494;8.410;2023-04-10T14:42:04;20.70;60.10
28010;DHT22;15334;49.494;8.410;2023-04-10T14:44:36;20.70;63.60
28010;DHT22;15334;49.494;8.410;2023-04-10T14:47:17;20.70;61.90
28010;DHT22;15334;49.494;8.410;2023-04-10T14:50:01;20.70;61.80
28010;DHT22;15334;49.494;8.410;2023-04-10T14:52:37;20.70;61.30
28010;DHT22;15334;49.494;8.410;2023-04-10T14:55:13;20.50;61.20
28010;DHT22;15334;49.494;8.410;2023-04-10T14:57:46;20.50;67.50
28010;DHT22;15334;49.494;8.410;2023-04-10T15:00:23;20.50;68.10
28010;DHT22;15334;49.494;8.410;2023-04-10T15:02:57;20.50;62.20
28010;DHT22;15334;49.494;8.410;2023-04-10T15:05:30;20.50;66.10
28010;DHT22;15334;49.494;8.410;2023-04-10T15:08:04;20.50;61.40
28010;DHT22;15334;49.494;8.410;2023-04-10T15:10:36;20.40;62.80
28010;DHT22;15334;49.494;8.410;2023-04-10T15:13:12;20.30;66.60
28010;DHT22;15334;49.494;8.410;2023-04-10T15:15:41;20.30;63.80
28010;DHT22;15334;49.494;8.410;2023-04-10T15:18:13;20.10;61.60
28010;DHT22;15334;49.494;8.410;2023-04-10T15:20:43;19.90;62.50
28010;DHT22;15334;49.494;8.410;2023-04-10T15:23:15;19.60;65.40
28010;DHT22;15334;49.494;8.410;2023-04-10T15:25:45;19.60;64.80
28010;DHT22;15334;49.494;8.410;2023-04-10T15:28:13;19.60;66.30
28010;DHT22;15334;49.494;8.410;2023-04-10T15:30:47;19.50;63.40
28010;DHT22;15334;49.494;8.410;2023-04-10T15:33:17;19.50;66.10
28010;DHT22;15334;49.494;8.410;2023-04-10T15:35:48;19.50;65.20
28010;DHT22;15334;49.494;8.410;2023-04-10T15:38:17;19.50;64.90
28010;DHT22;15334;49.494;8.410;2023-04-10T15:40:51;19.50;67.10
28010;DHT22;15334;49.494;8.410;2023-04-10T15:43:24;19.50;62.70
28010;DHT22;15334;49.494;8.410;2023-04-10T15:45:57;19.40;64.00
28010;DHT22;15334;49.494;8.410;2023-04-10T15:48:28;19.50;67.60
28010;DHT22;15334;49.494;8.410;2023-04-10T15:51:03;19.50;66.20
28010;DHT22;15334;49.494;8.410;2023-04-10T15:53:37;19.50;66.10
28010;DHT22;15334;49.494;8.410;2023-04-10T15:56:09;19.60;70.00
28010;DHT22;15334;49.494;8.410;2023-04-10T15:58:43;19.50;70.50
28010;DHT22;15334;49.494;8.410;2023-04-10T16:01:18;19.50;69.80
28010;DHT22;15334;49.494;8.410;2023-04-10T16:03:52;19.50;74.50
28010;DHT22;15334;49.494;8.410;2023-04-10T16:06:22;19.60;72.40
28010;DHT22;15334;49.494;8.410;2023-04-10T16:08:57;19.60;70.70
28010;DHT22;15334;49.494;8.410;2023-04-10T16:11:37;19.50;65.00
28010;DHT22;15334;49.494;8.410;2023-04-10T16:14:05;19.40;67.10
28010;DHT22;15334;49.494;8.410;2023-04-10T16:16:33;19.30;64.70